Time;durP1;ratioP1;P1;durP2;ratioP2;P2;SDS_P1;SDS_P2;PMS_P1;PMS_P2;Temp;Humidity;BMP_temperature;BMP_pressure;BME280_temperature;BME280_humidity;BME280_pressure;Samples;Min_cycle;Max_cycle;Signal;HPM_P1;HPM_P2
2021/12/01 00:01:28;;;;;;;18.70;9.73;;;;;;;13.63;86.07;97217.50;4966256;28;20146;-55
2021/12/01 00:03:53;;;;;;;20.95;10.98;;;;;;;13.51;100.00;97211.31;4970571;28;20189;-56
2021/12/01 00:06:18;;;;;;;17.80;9.43;;;;;;;12.62;97.40;97203.84;4966458;28;20042;-56
2021/12/01 00:08:44;;;;;;;19.52;10.00;;;;;;;13.30;88.89;97198.63;4970547;28;20042;-55
2021/12/01 00:11:09;;;;;;;5.35;3.00;;;;;;;10.35;75.59;97197.63;4967940;28;20077;-56
2021/12/01 00:13:35;;;;;;;14.80;7.97;;;;;;;11.77;77.10;97199.25;4967377;28;20026;-56
2021/12/01 00:16:01;;;;;;;13.88;7.20;;;;;;;11.88;81.38;97192.56;4974548;28;20039;-55
2021/12/01 00:18:26;;;;;;;19.02;9.05;;;;;;;12.92;95.54;97191.44;4966255;28;20031;-56
2021/12/01 00:20:52;;;;;;;9.55;5.05;;;;;;;9.84;86.40;97188.03;4971545;28;20040;-56
2021/12/01 00:23:17;;;;;;;14.32;6.60;;;;;;;9.91;99.93;97192.94;4974153;28;20778;-55
2021/12/01 00:25:43;;;;;;;12.00;5.65;;;;;;;9.89;89.60;97192.16;4972453;28;20128;-56
2021/12/01 00:28:09;;;;;;;13.48;6.22;;;;;;;9.44;87.81;97189.19;4971583;28;20510;-56
2021/12/01 00:30:36;;;;;;;8.63;4.13;;;;;;;8.54;92.96;97192.56;4972471;28;20038;-56
2021/12/01 00:33:02;;;;;;;14.25;7.03;;;;;;;9.54;95.83;97197.38;4970667;28;20019;-56
2021/12/01 00:35:28;;;;;;;15.93;6.28;;;;;;;8.33;95.79;97188.31;4975017;28;20053;-56
2021/12/01 00:37:53;;;;;;;12.00;5.45;;;;;;;8.99;94.19;97182.72;4971041;28;20031;-56
2021/12/01 00:40:19;;;;;;;10.95;4.85;;;;;;;8.06;91.73;97186.03;4971907;28;20444;-56
2021/12/01 00:42:45;;;;;;;14.52;6.30;;;;;;;7.73;97.67;97183.97;4971327;28;20031;-56
2021/12/01 00:45:16;;;;;;;11.63;5.65;;;;;;;8.50;95.37;97180.63;4970796;28;20030;-55
2021/12/01 00:47:46;;;;;;;9.60;4.82;;;;;;;8.30;93.34;97184.91;4969125;28;20027;-56
2021/12/01 00:50:15;;;;;;;13.77;6.93;;;;;;;8.57;94.22;97176.84;4971224;28;20125;-55
2021/12/01 00:52:41;;;;;;;15.35;7.95;;;;;;;9.84;100.00;97177.59;4970081;28;20023;-56
2021/12/01 00:55:08;;;;;;;10.05;5.00;;;;;;;9.13;94.47;97176.81;4971444;28;20026;-56
2021/12/01 00:57:33;;;;;;;7.95;3.67;;;;;;;7.50;91.60;97174.59;4970826;28;20056;-57
2021/12/01 00:59:59;;;;;;;8.57;3.95;;;;;;;7.43;94.07;97171.38;4971023;28;20435;-56
2021/12/01 01:02:24;;;;;;;7.50;3.55;;;;;;;7.04;97.49;97174.72;4968581;28;20046;-57
2021/12/01 01:04:50;;;;;;;8.23;3.45;;;;;;;6.60;98.02;97176.41;4968149;28;20109;-56
2021/12/01 01:07:15;;;;;;;8.45;3.95;;;;;;;6.99;96.43;97176.63;4969656;28;20454;-56
2021/12/01 01:09:43;;;;;;;7.63;3.33;;;;;;;6.98;100.00;97174.09;4970418;28;20045;-55
2021/12/01 01:17:39;;;;;;;6.20;2.15;;;;;;;6.34;99.53;97165.28;4970033;28;20050;-55
2021/12/01 01:20:07;;;;;;;10.32;4.35;;;;;;;6.94;100.00;97165.59;4970502;28;20030;-55
2021/12/01 01:22:33;;;;;;;8.93;3.60;;;;;;;6.61;100.00;97160.81;4970753;28;20273;-55
2021/12/01 01:24:59;;;;;;;5.30;2.03;;;;;;;6.13;100.00;97157.44;4968967;28;20121;-55
2021/12/01 01:27:24;;;;;;;9.27;3.25;;;;;;;6.27;100.00;97164.69;4970949;28;20038;-55
2021/12/01 01:29:49;;;;;;;9.95;3.33;;;;;;;6.75;100.00;97153.38;4969920;28;20311;-56
2021/12/01 01:32:15;;;;;;;6.97;2.42;;;;;;;5.78;100.00;97161.25;4969364;28;20050;-55
2021/12/01 01:34:40;;;;;;;12.32;4.28;;;;;;;6.17;100.00;97150.41;4969724;28;20483;-56
2021/12/01 01:37:06;;;;;;;8.25;3.00;;;;;;;6.06;100.00;97147.34;4969337;28;20046;-56
2021/12/01 01:39:31;;;;;;;10.20;3.72;;;;;;;6.20;100.00;97141.69;4969636;28;20086;-55
2021/12/01 01:41:57;;;;;;;9.80;3.53;;;;;;;6.17;100.00;97146.06;4968471;28;20046;-55
2021/12/01 01:44:22;;;;;;;10.27;3.58;;;;;;;6.32;100.00;97141.19;4967353;28;20477;-55
2021/12/01 01:46:48;;;;;;;9.68;3.05;;;;;;;6.09;100.00;97139.50;4970494;28;20082;-56
2021/12/01 01:49:20;;;;;;;11.40;3.90;;;;;;;6.36;100.00;97145.41;4969416;28;20027;-55
2021/12/01 01:51:47;;;;;;;;;;;;;;;5.90;100.00;97141.84;4971238;28;20710;-55
2021/12/01 01:54:13;;;;;;;8.75;3.03;;;;;;;6.01;100.00;97134.59;4970134;28;19913;-55
2021/12/01 01:56:39;;;;;;;9.73;4.03;;;;;;;6.25;100.00;97127.66;4966298;28;20419;-56
2021/12/01 01:59:05;;;;;;;11.05;4.30;;;;;;;6.14;100.00;97122.03;4966959;28;20479;-56
2021/12/01 02:04:06;;;;;;;13.68;5.78;;;;;;;7.44;100.00;97118.56;4968639;28;20069;-55
2021/12/01 02:06:31;;;;;;;12.23;4.13;;;;;;;8.51;100.00;97119.94;4977616;28;20043;-55
2021/12/01 02:08:58;;;;;;;19.70;8.35;;;;;;;8.81;100.00;97116.81;4969619;28;20077;-55
2021/12/01 02:11:26;;;;;;;18.52;8.18;;;;;;;7.71;100.00;97107.94;4969078;28;20077;-55
2021/12/01 02:13:51;;;;;;;12.13;5.10;;;;;;;7.34;100.00;97093.94;4968274;28;20485;-55
2021/12/01 02:16:18;;;;;;;12.13;5.40;;;;;;;8.20;100.00;97103.13;4971913;28;20150;-56
2021/12/01 02:18:44;;;;;;;11.07;5.38;;;;;;;9.67;100.00;97101.25;4968136;28;20109;-56
2021/12/01 02:21:16;;;;;;;12.73;6.20;;;;;;;9.73;100.00;97085.34;4971683;28;20643;-55
2021/12/01 02:23:47;;;;;;;11.40;5.32;;;;;;;8.59;100.00;97085.78;4965693;28;20023;-55
2021/12/01 02:26:15;;;;;;;10.90;5.45;;;;;;;9.11;100.00;97082.41;4968744;28;20034;-56
2021/12/01 02:28:42;;;;;;;11.48;5.72;;;;;;;8.59;100.00;97081.44;4984818;28;20515;-56
2021/12/01 02:31:09;;;;;;;11.38;5.93;;;;;;;9.24;100.00;97078.28;4968172;28;20043;-55
2021/12/01 02:33:35;;;;;;;11.25;5.10;;;;;;;8.83;100.00;97083.75;4971687;28;20508;-55
2021/12/01 02:36:00;;;;;;;9.68;4.95;;;;;;;8.88;100.00;97080.03;4968979;28;20128;-55
2021/12/01 02:38:26;;;;;;;11.15;5.25;;;;;;;9.53;100.00;97074.19;4970004;28;20081;-56
2021/12/01 02:40:52;;;;;;;10.00;5.00;;;;;;;10.27;100.00;97064.22;4966467;28;20040;-56
2021/12/01 02:43:18;;;;;;;10.85;5.55;;;;;;;9.53;100.00;97062.94;4969311;28;20133;-56
2021/12/01 02:45:44;;;;;;;14.35;6.40;;;;;;;9.13;100.00;97071.00;4967489;28;20059;-56
2021/12/01 02:48:12;;;;;;;7.47;3.72;;;;;;;8.30;95.03;97070.59;4969645;28;20113;-56
2021/12/01 02:50:40;;;;;;;11.70;5.70;;;;;;;9.01;100.00;97067.25;4967413;28;20039;-55
2021/12/01 02:53:05;;;;;;;7.93;3.85;;;;;;;8.20;100.00;97068.53;4976652;28;20034;-56
2021/12/01 02:55:32;;;;;;;7.97;3.97;;;;;;;7.98;99.80;97055.69;4967495;28;20042;-57
2021/12/01 02:57:59;;;;;;;5.95;3.00;;;;;;;7.92;100.00;97054.19;4970410;28;21371;-55
2021/12/01 03:00:25;;;;;;;10.15;5.25;;;;;;;8.54;100.00;97052.22;4968312;28;20038;-55
2021/12/01 03:02:52;;;;;;;11.40;4.63;;;;;;;8.23;100.00;97048.41;4968628;28;20030;-56
2021/12/01 03:05:19;;;;;;;8.93;4.10;;;;;;;8.43;100.00;97046.69;4967737;28;20716;-55
2021/12/01 03:07:45;;;;;;;9.50;4.05;;;;;;;7.89;98.48;97050.00;4968216;28;20030;-56
2021/12/01 03:10:12;;;;;;;11.88;5.57;;;;;;;8.58;100.00;97040.75;4970060;28;20054;-55
2021/12/01 03:12:40;;;;;;;5.43;2.58;;;;;;;7.63;96.24;97039.97;4969639;28;20119;-55
2021/12/01 03:15:08;;;;;;;7.25;3.15;;;;;;;7.29;100.00;97023.25;4966715;28;20026;-56
2021/12/01 03:17:34;;;;;;;10.00;4.68;;;;;;;7.91;100.00;97022.19;4969001;28;20126;-56
2021/12/01 03:20:00;;;;;;;11.40;5.30;;;;;;;8.62;100.00;97013.72;4969771;28;20552;-55
2021/12/01 03:22:27;;;;;;;10.07;4.30;;;;;;;7.28;100.00;97017.25;4966750;28;20125;-55
2021/12/01 03:24:53;;;;;;;8.65;3.95;;;;;;;7.45;99.87;97016.50;4967724;28;20065;-55
2021/12/01 03:27:19;;;;;;;10.15;5.05;;;;;;;8.04;100.00;97014.69;4968260;28;20035;-55
2021/12/01 03:29:46;;;;;;;13.77;6.40;;;;;;;8.87;100.00;97015.91;4968617;28;20041;-55
2021/12/01 03:32:13;;;;;;;9.80;4.78;;;;;;;7.54;100.00;97017.84;4968078;28;20035;-56
2021/12/01 03:34:40;;;;;;;8.73;3.95;;;;;;;7.93;100.00;97008.31;4967676;28;20030;-55
2021/12/01 03:37:06;;;;;;;7.88;3.50;;;;;;;7.64;100.00;97000.09;4965026;28;20050;-55
2021/12/01 03:39:31;;;;;;;8.52;3.50;;;;;;;7.14;100.00;97004.03;4968585;28;20034;-55
2021/12/01 03:41:57;;;;;;;7.07;3.33;;;;;;;7.34;100.00;96990.19;4968102;28;20046;-55
2021/12/01 03:44:22;;;;;;;7.78;3.60;;;;;;;7.48;96.96;96982.63;4968353;28;20030;-55
2021/12/01 03:46:48;;;;;;;9.35;4.10;;;;;;;6.93;100.00;96985.06;4975229;28;20225;-56
2021/12/01 03:49:13;;;;;;;8.85;4.40;;;;;;;7.83;100.00;96987.97;4968857;28;20027;-55
2021/12/01 03:51:39;;;;;;;8.73;4.30;;;;;;;7.79;100.00;96980.38;4968597;28;20039;-55
2021/12/01 03:54:05;;;;;;;9.82;4.97;;;;;;;7.95;100.00;96978.75;4970210;28;20141;-54
2021/12/01 03:56:31;;;;;;;11.63;5.63;;;;;;;8.48;100.00;96974.56;4971643;28;20155;-55
2021/12/01 03:58:57;;;;;;;7.18;3.28;;;;;;;7.95;94.58;96970.13;4971396;28;20113;-55
2021/12/01 04:01:23;;;;;;;8.55;4.00;;;;;;;7.65;100.00;96965.47;4971373;28;20488;-54
2021/12/01 04:03:48;;;;;;;10.50;4.40;;;;;;;7.53;100.00;96965.13;4971827;28;20022;-57
2021/12/01 04:06:13;;;;;;;10.85;4.00;;;;;;;9.06;96.23;96956.03;4971459;28;20045;-56
2021/12/01 04:08:40;;;;;;;8.85;3.40;;;;;;;7.61;99.57;96950.91;4971254;28;20609;-55
2021/12/01 04:11:05;;;;;;;9.25;3.58;;;;;;;7.84;98.36;96950.69;4970321;28;20049;-56
2021/12/01 04:13:31;;;;;;;12.57;5.22;;;;;;;8.54;100.00;96950.84;4971140;28;20427;-54
2021/12/01 04:15:56;;;;;;;11.32;5.80;;;;;;;8.90;100.00;96949.09;4968584;28;20039;-55
2021/12/01 04:18:22;;;;;;;8.30;4.40;;;;;;;7.65;99.68;96949.88;4973037;28;20190;-55
2021/12/01 04:20:47;;;;;;;7.47;3.63;;;;;;;7.46;100.00;96942.94;4970226;28;20706;-55
2021/12/01 04:23:12;;;;;;;8.93;4.10;;;;;;;8.84;100.00;96935.47;4970060;28;20798;-55
2021/12/01 04:25:38;;;;;;;12.13;5.30;;;;;;;8.53;100.00;96941.38;4969531;28;20035;-55
2021/12/01 04:28:04;;;;;;;11.27;4.57;;;;;;;8.99;100.00;96923.44;4971649;28;20137;-55
2021/12/01 04:30:29;;;;;;;10.80;5.22;;;;;;;9.93;100.00;96928.00;4968847;28;20544;-54
2021/12/01 04:32:56;;;;;;;9.75;3.90;;;;;;;8.84;95.67;96925.09;4970062;28;20035;-55
2021/12/01 04:35:24;;;;;;;8.30;3.60;;;;;;;8.22;100.00;96932.47;4967822;28;20538;-55
2021/12/01 04:37:50;;;;;;;8.38;3.85;;;;;;;8.01;100.00;96930.88;4971960;28;20065;-55
2021/12/01 04:40:16;;;;;;;6.45;2.88;;;;;;;7.87;100.00;96927.19;4970977;28;20443;-55
2021/12/01 04:42:43;;;;;;;11.32;5.07;;;;;;;9.55;100.00;96921.34;4971452;28;20040;-55
2021/12/01 04:45:14;;;;;;;10.40;4.95;;;;;;;9.67;100.00;96925.06;4970703;28;20030;-55
2021/12/01 04:47:49;;;;;;;8.90;4.40;;;;;;;8.96;100.00;96923.59;4970988;28;20117;-55
2021/12/01 04:50:16;;;;;;;6.88;3.40;;;;;;;7.87;98.34;96919.41;4970500;28;20022;-56
2021/12/01 04:52:42;;;;;;;7.97;3.40;;;;;;;8.45;100.00;96913.19;4972635;28;20023;-56
2021/12/01 04:55:08;;;;;;;7.45;3.75;;;;;;;9.44;100.00;96901.09;4972436;28;20033;-55
2021/12/01 04:57:34;;;;;;;12.75;5.60;;;;;;;10.35;100.00;96901.31;4969254;28;20681;-55
2021/12/01 04:59:59;;;;;;;7.30;3.15;;;;;;;9.39;100.00;96908.34;4971495;28;20033;-56
2021/12/01 05:02:25;;;;;;;8.02;4.30;;;;;;;9.98;100.00;96897.31;4971992;28;20153;-54
2021/12/01 05:04:51;;;;;;;9.65;4.70;;;;;;;9.68;100.00;96892.88;4970163;28;20018;-55
2021/12/01 05:07:17;;;;;;;9.25;3.85;;;;;;;8.61;97.88;96879.44;4970811;28;20508;-56
2021/12/01 05:09:42;;;;;;;9.35;3.67;;;;;;;10.26;90.75;96890.56;4970433;28;20026;-56
2021/12/01 05:12:08;;;;;;;8.45;4.03;;;;;;;8.65;94.60;96882.75;4977274;28;20041;-55
2021/12/01 05:14:35;;;;;;;7.53;3.83;;;;;;;8.79;90.88;96879.44;4969990;28;20366;-55
2021/12/01 05:17:00;;;;;;;6.18;2.88;;;;;;;7.97;90.88;96885.22;4967198;28;20073;-55
2021/12/01 05:19:26;;;;;;;8.10;4.22;;;;;;;8.30;100.00;96878.34;4970290;28;20108;-56
2021/12/01 05:21:51;;;;;;;7.43;3.13;;;;;;;7.99;94.53;96873.84;4971625;28;20042;-57
2021/12/01 05:24:17;;;;;;;9.73;4.20;;;;;;;8.26;100.00;96876.84;4969541;28;20027;-55
2021/12/01 05:26:42;;;;;;;7.75;3.30;;;;;;;8.05;97.20;96867.50;4968470;28;20057;-56
2021/12/01 05:29:07;;;;;;;7.18;3.42;;;;;;;8.74;99.47;96858.88;4952659;28;20030;-56
2021/12/01 05:31:33;;;;;;;6.80;3.33;;;;;;;8.66;100.00;96859.28;4970731;28;20046;-56
2021/12/01 05:33:59;;;;;;;8.70;3.72;;;;;;;9.58;100.00;96860.50;4969772;28;20113;-56
2021/12/01 05:36:24;;;;;;;7.72;3.45;;;;;;;8.29;100.00;96845.53;4970707;28;20542;-56
2021/12/01 05:38:49;;;;;;;10.55;4.88;;;;;;;9.54;100.00;96852.00;4970618;28;20027;-56
2021/12/01 05:41:15;;;;;;;8.73;4.00;;;;;;;9.44;100.00;96841.25;4970446;28;20097;-56
2021/12/01 05:43:42;;;;;;;9.52;4.43;;;;;;;9.06;100.00;96841.59;4967280;28;20033;-56
2021/12/01 05:46:07;;;;;;;6.07;3.00;;;;;;;8.87;96.45;96840.88;4969381;28;20066;-56
2021/12/01 05:48:33;;;;;;;6.43;3.10;;;;;;;8.01;95.61;96838.25;4971326;28;20069;-56
2021/12/01 05:50:59;;;;;;;8.27;4.03;;;;;;;9.17;100.00;96827.13;4969350;28;20045;-57
2021/12/01 05:53:24;;;;;;;6.97;2.95;;;;;;;9.33;95.36;96829.75;4970952;28;20298;-56
2021/12/01 05:55:51;;;;;;;8.23;4.18;;;;;;;8.31;100.00;96829.88;4968784;28;20077;-56
2021/12/01 05:58:16;;;;;;;10.82;5.07;;;;;;;9.25;100.00;96819.78;4967320;28;20027;-56
2021/12/01 06:00:42;;;;;;;6.35;3.15;;;;;;;8.09;97.33;96822.31;4970108;28;20090;-56
2021/12/01 06:03:08;;;;;;;10.52;3.10;;;;;;;7.70;100.00;96820.72;4963852;28;20447;-56
2021/12/01 06:05:33;;;;;;;8.30;4.03;;;;;;;7.85;100.00;96812.22;4969996;28;20061;-56
2021/12/01 06:07:58;;;;;;;9.95;4.57;;;;;;;7.91;99.44;96804.09;4972476;28;20033;-56
2021/12/01 06:10:24;;;;;;;9.15;3.65;;;;;;;7.90;95.92;96794.66;4969069;28;20397;-56
2021/12/01 06:12:51;;;;;;;9.02;3.65;;;;;;;7.79;100.00;96785.69;4972169;28;20026;-56
2021/12/01 06:15:18;;;;;;;11.90;4.40;;;;;;;7.79;100.00;96778.75;4971337;28;20034;-55
2021/12/01 06:17:44;;;;;;;8.10;3.38;;;;;;;8.02;100.00;96766.41;4970520;28;20054;-55
2021/12/01 06:20:12;;;;;;;10.48;4.20;;;;;;;8.40;100.00;96763.56;4970877;28;20018;-55
2021/12/01 06:22:39;;;;;;;6.95;2.92;;;;;;;8.04;100.00;96761.97;4969713;28;20023;-55
2021/12/01 06:25:04;;;;;;;6.95;2.85;;;;;;;7.48;95.76;96767.28;4969395;28;20018;-55
2021/12/01 06:27:29;;;;;;;7.50;3.65;;;;;;;8.32;100.00;96765.75;4973010;28;20035;-54
2021/12/01 06:29:55;;;;;;;9.15;4.60;;;;;;;9.77;100.00;96762.19;4971365;28;20906;-55
2021/12/01 06:32:21;;;;;;;6.35;3.00;;;;;;;7.83;94.83;96749.16;4969151;28;20100;-57
2021/12/01 06:34:47;;;;;;;7.82;3.80;;;;;;;10.43;100.00;96747.06;4969892;28;20030;-55
2021/12/01 06:37:12;;;;;;;10.07;4.78;;;;;;;12.55;100.00;96743.00;4967867;28;20108;-55
2021/12/01 06:39:38;;;;;;;9.68;3.78;;;;;;;11.98;87.01;96748.66;4971076;28;20033;-55
2021/12/01 06:42:04;;;;;;;14.13;5.90;;;;;;;13.42;92.60;96738.66;4968377;28;20074;-55
2021/12/01 06:44:33;;;;;;;11.25;4.88;;;;;;;11.37;100.00;96741.25;4972223;28;20065;-55
2021/12/01 06:47:00;;;;;;;13.60;5.20;;;;;;;13.34;100.00;96743.59;4970897;28;20440;-55
2021/12/01 06:49:25;;;;;;;12.95;5.20;;;;;;;13.87;100.00;96743.25;4970333;28;20026;-56
2021/12/01 06:51:50;;;;;;;18.73;4.82;;;;;;;13.50;81.05;96738.09;4968297;28;20097;-55
2021/12/01 06:54:16;;;;;;;6.30;3.25;;;;;;;10.97;82.12;96741.16;4969066;28;20038;-56
2021/12/01 06:56:42;;;;;;;4.45;2.10;;;;;;;9.94;81.33;96736.94;4970713;28;20082;-56
2021/12/01 06:59:07;;;;;;;4.88;2.33;;;;;;;8.44;86.17;96744.38;4971056;28;20121;-56
2021/12/01 07:01:32;;;;;;;9.75;3.85;;;;;;;10.97;100.00;96741.16;4970299;28;20065;-56
2021/12/01 07:03:58;;;;;;;10.85;4.00;;;;;;;10.20;100.00;96730.16;4969716;28;20037;-55
2021/12/01 07:06:23;;;;;;;4.80;2.10;;;;;;;6.78;94.68;96737.72;4969718;28;20085;-55
2021/12/01 07:08:49;;;;;;;7.72;2.30;;;;;;;6.31;96.68;96738.97;4968548;28;20027;-55
2021/12/01 07:11:14;;;;;;;5.38;2.20;;;;;;;6.04;98.28;96735.81;4968908;28;20039;-56
2021/12/01 07:13:40;;;;;;;6.65;2.38;;;;;;;5.89;98.77;96731.28;4970106;28;20114;-59
2021/12/01 07:16:05;;;;;;;7.30;2.63;;;;;;;6.04;100.00;96724.63;4969724;28;20473;-58
2021/12/01 07:18:31;;;;;;;7.57;2.42;;;;;;;6.15;98.15;96732.78;4968455;28;20467;-55
2021/12/01 07:20:57;;;;;;;6.43;2.50;;;;;;;6.43;98.89;96731.56;4971315;28;20053;-55
2021/12/01 07:23:23;;;;;;;7.45;2.60;;;;;;;6.60;99.28;96718.69;4969419;28;20053;-55
2021/12/01 07:25:49;;;;;;;6.57;2.25;;;;;;;6.41;99.65;96723.03;4968133;28;20078;-55
2021/12/01 07:28:14;;;;;;;8.98;2.63;;;;;;;6.83;100.00;96714.19;4971073;28;20084;-55
2021/12/01 07:30:40;;;;;;;9.80;3.13;;;;;;;6.80;100.00;96714.34;4973619;28;20077;-57
2021/12/01 07:33:06;;;;;;;10.10;3.47;;;;;;;6.99;100.00;96715.16;4976624;28;20041;-57
2021/12/01 07:35:32;;;;;;;6.47;2.60;;;;;;;6.93;97.40;96710.28;4974890;28;20109;-56
2021/12/01 07:37:58;;;;;;;9.38;2.85;;;;;;;7.04;99.10;96708.00;4974075;28;20487;-56
2021/12/01 07:40:23;;;;;;;6.25;2.42;;;;;;;6.89;100.00;96713.91;4974545;28;20034;-56
2021/12/01 07:42:49;;;;;;;8.63;2.67;;;;;;;7.02;96.52;96712.44;4975114;28;20121;-57
2021/12/01 07:45:14;;;;;;;6.03;2.50;;;;;;;7.09;95.54;96700.00;4973985;28;20061;-55
2021/12/01 07:47:40;;;;;;;7.68;2.78;;;;;;;7.01;95.45;96697.78;4974586;28;20491;-55
2021/12/01 07:50:07;;;;;;;8.13;2.92;;;;;;;6.80;94.64;96691.88;4974947;28;20073;-56
2021/12/01 07:52:33;;;;;;;8.70;3.15;;;;;;;7.07;100.00;96687.09;4975695;28;20560;-55
2021/12/01 07:54:59;;;;;;;7.82;2.80;;;;;;;7.10;91.05;96675.78;4973820;28;20029;-56
2021/12/01 07:57:24;;;;;;;7.70;2.70;;;;;;;7.11;98.12;96673.09;4976918;28;20037;-56
2021/12/01 07:59:49;;;;;;;8.32;2.15;;;;;;;7.48;92.51;96670.44;4974543;28;20031;-55
2021/12/01 08:02:15;;;;;;;10.40;3.20;;;;;;;7.74;96.60;96666.56;4974351;28;20039;-56
2021/12/01 08:04:40;;;;;;;9.25;2.83;;;;;;;7.70;100.00;96662.41;4974401;28;20057;-57
2021/12/01 08:07:06;;;;;;;8.05;3.05;;;;;;;7.99;100.00;96654.91;4974486;28;20385;-55
2021/12/01 08:09:31;;;;;;;4.57;1.90;;;;;;;7.35;91.96;96652.06;4975597;28;20112;-58
2021/12/01 08:11:57;;;;;;;12.82;2.40;;;;;;;7.29;93.32;96644.59;4974523;28;20035;-57
2021/12/01 08:14:23;;;;;;;6.28;2.50;;;;;;;7.61;95.23;96644.72;4974213;28;20073;-56
2021/12/01 08:16:49;;;;;;;8.32;2.60;;;;;;;7.59;94.94;96641.38;4974080;28;20038;-55
2021/12/01 08:19:15;;;;;;;9.35;2.40;;;;;;;7.62;90.27;96636.84;4973747;28;20043;-55
2021/12/01 08:21:40;;;;;;;5.60;2.20;;;;;;;7.46;92.20;96634.22;4976214;28;20045;-57
2021/12/01 08:24:06;;;;;;;5.13;2.25;;;;;;;7.43;90.76;96625.75;4975786;28;20037;-55
2021/12/01 08:26:32;;;;;;;5.72;2.28;;;;;;;7.73;98.66;96618.97;4973608;28;20046;-55
2021/12/01 08:28:57;;;;;;;5.60;2.10;;;;;;;7.46;91.19;96605.69;4975941;28;20044;-55
2021/12/01 08:31:23;;;;;;;5.68;2.10;;;;;;;7.55;91.20;96608.72;4983394;28;20049;-55
2021/12/01 08:33:49;;;;;;;8.57;2.58;;;;;;;7.45;89.41;96604.00;4973837;28;20512;-56
2021/12/01 08:36:16;;;;;;;5.30;2.10;;;;;;;7.17;88.67;96603.69;4973045;28;20047;-56
2021/12/01 08:38:42;;;;;;;7.38;2.25;;;;;;;7.04;90.76;96593.94;4974544;28;20034;-55
2021/12/01 08:41:09;;;;;;;5.10;1.92;;;;;;;7.37;90.17;96587.13;4972862;28;20046;-55
2021/12/01 08:43:35;;;;;;;7.50;2.60;;;;;;;7.36;92.56;96588.91;4982762;28;20117;-55
2021/12/01 08:46:01;;;;;;;7.93;1.80;;;;;;;7.27;88.59;96581.59;4973922;28;20038;-55
2021/12/01 08:48:27;;;;;;;7.25;2.65;;;;;;;7.52;92.01;96569.03;4975913;28;20571;-56
2021/12/01 08:50:53;;;;;;;6.05;2.30;;;;;;;7.62;94.94;96563.38;4974649;28;20057;-55
2021/12/01 08:53:19;;;;;;;6.50;2.20;;;;;;;7.62;90.01;96561.59;4976328;28;20423;-55
2021/12/01 08:55:45;;;;;;;7.68;2.05;;;;;;;7.79;85.67;96550.34;4972481;28;20046;-56
2021/12/01 08:58:12;;;;;;;6.80;2.25;;;;;;;8.19;92.47;96548.19;4971457;28;20042;-57
2021/12/01 09:00:44;;;;;;;7.55;2.45;;;;;;;8.39;88.27;96543.69;4971663;28;20130;-55
2021/12/01 09:03:11;;;;;;;7.15;2.10;;;;;;;9.07;88.68;96533.72;4973345;28;20088;-55
2021/12/01 09:05:36;;;;;;;6.53;2.63;;;;;;;9.88;92.44;96532.41;4973729;28;20142;-55
2021/12/01 09:08:02;;;;;;;7.85;2.65;;;;;;;9.30;91.15;96526.34;4971770;28;20029;-55
2021/12/01 09:10:28;;;;;;;7.72;2.78;;;;;;;10.16;91.32;96515.91;4972410;28;20128;-55
2021/12/01 09:12:53;;;;;;;6.63;2.15;;;;;;;9.61;80.63;96514.09;4973054;28;20450;-56
2021/12/01 09:15:19;;;;;;;6.43;2.38;;;;;;;10.27;85.08;96511.75;4970516;28;20042;-55
2021/12/01 09:17:45;;;;;;;6.47;2.67;;;;;;;10.60;95.26;96509.66;4973358;28;20034;-55
2021/12/01 09:20:11;;;;;;;7.38;2.55;;;;;;;9.93;83.92;96503.47;4971698;28;20043;-56
2021/12/01 09:22:37;;;;;;;4.90;2.10;;;;;;;11.48;87.37;96501.19;4970812;28;20860;-55
2021/12/01 09:25:03;;;;;;;6.20;2.40;;;;;;;10.12;82.27;96503.97;4969396;28;20038;-55
2021/12/01 09:27:29;;;;;;;5.30;2.33;;;;;;;11.00;81.69;96486.13;4972808;28;20037;-56
2021/12/01 09:29:54;;;;;;;6.40;2.50;;;;;;;9.64;75.72;96495.69;4971877;28;20030;-55
2021/12/01 09:32:20;;;;;;;8.05;2.30;;;;;;;9.66;78.96;96486.00;4974725;28;20039;-56
2021/12/01 09:34:45;;;;;;;5.93;2.42;;;;;;;9.86;81.92;96481.34;4972467;28;20080;-57
2021/12/01 09:37:11;;;;;;;4.78;1.95;;;;;;;9.86;77.97;96478.75;4969065;28;20108;-55
2021/12/01 09:39:36;;;;;;;4.95;2.10;;;;;;;10.65;87.44;96477.22;4970768;28;20046;-55
2021/12/01 09:42:03;;;;;;;5.70;2.05;;;;;;;9.82;77.56;96471.13;4971018;28;20042;-56
2021/12/01 09:44:30;;;;;;;5.32;2.13;;;;;;;10.08;84.20;96458.22;4970396;28;20285;-55
2021/12/01 09:46:58;;;;;;;4.72;2.10;;;;;;;9.67;76.52;96458.19;4972340;28;20042;-55
2021/12/01 09:49:24;;;;;;;4.53;2.10;;;;;;;9.75;91.79;96449.00;4972987;28;20053;-54
2021/12/01 09:51:50;;;;;;;7.40;2.10;;;;;;;8.76;78.44;96451.47;4973546;28;20419;-56
2021/12/01 09:54:15;;;;;;;5.82;2.20;;;;;;;10.44;82.41;96440.34;4973105;28;20135;-54
2021/12/01 09:56:40;;;;;;;5.28;1.80;;;;;;;9.09;79.99;96434.00;4971589;28;20056;-55
2021/12/01 09:59:06;;;;;;;4.68;2.13;;;;;;;9.79;80.13;96432.25;4975141;28;20026;-55
2021/12/01 10:01:32;;;;;;;6.78;2.70;;;;;;;9.86;78.76;96421.47;4973640;28;20460;-57
2021/12/01 10:03:58;;;;;;;4.57;1.98;;;;;;;9.48;76.02;96416.88;4973110;28;20026;-55
2021/12/01 10:06:25;;;;;;;5.68;2.60;;;;;;;10.21;88.45;96404.38;4968596;28;20061;-55
2021/12/01 10:09:01;;;;;;;4.72;2.10;;;;;;;9.47;81.37;96407.41;4972231;28;20675;-56
2021/12/01 10:11:28;;;;;;;5.63;2.00;;;;;;;9.30;76.88;96395.41;4972766;28;20647;-55
2021/12/01 10:14:03;;;;;;;6.07;1.98;;;;;;;9.40;78.00;96399.97;4973154;28;20313;-55
2021/12/01 10:16:34;;;;;;;4.80;2.00;;;;;;;9.70;78.98;96403.34;4970742;28;20516;-55
2021/12/01 10:19:03;;;;;;;5.60;2.20;;;;;;;9.73;78.82;96392.75;4972660;28;20029;-56
2021/12/01 10:21:28;;;;;;;5.00;2.13;;;;;;;9.35;74.76;96393.38;4970208;28;20081;-56
2021/12/01 10:24:00;;;;;;;5.40;2.22;;;;;;;9.40;81.84;96380.91;4970808;28;20452;-55
2021/12/01 10:26:30;;;;;;;3.83;1.70;;;;;;;9.32;74.96;96384.00;4969768;28;20091;-55
2021/12/01 10:29:01;;;;;;;5.47;1.80;;;;;;;9.50;77.26;96376.78;4979280;28;20057;-55
2021/12/01 10:31:56;;;;;;;5.43;1.80;;;;;;;9.28;77.62;96366.88;4968920;28;20097;-55
2021/12/01 10:34:31;;;;;;;4.03;1.70;;;;;;;9.41;74.17;96362.63;4966550;28;20042;-56
2021/12/01 10:37:27;;;;;;;6.30;2.00;;;;;;;9.40;76.76;96355.72;4971046;28;20963;-55
2021/12/01 10:40:10;;;;;;;4.88;1.90;;;;;;;9.55;74.58;96348.72;4970188;28;20031;-55
2021/12/01 10:42:57;;;;;;;4.80;2.03;;;;;;;9.68;76.31;96343.56;4969424;28;20512;-56
2021/12/01 10:45:28;;;;;;;4.85;2.00;;;;;;;9.20;74.44;96337.94;4968417;28;20034;-55
2021/12/01 10:47:54;;;;;;;4.95;2.00;;;;;;;9.55;75.08;96332.28;4970801;28;20162;-58
2021/12/01 10:50:24;;;;;;;4.55;2.00;;;;;;;9.32;79.63;96323.31;4969798;28;20113;-55
2021/12/01 10:53:13;;;;;;;4.80;1.95;;;;;;;9.19;79.27;96315.44;4984878;28;20336;-56
2021/12/01 10:55:44;;;;;;;5.32;1.90;;;;;;;9.09;75.71;96320.38;4965621;28;20039;-55
2021/12/01 10:58:10;;;;;;;5.80;2.10;;;;;;;8.67;76.90;96304.72;4979138;28;20019;-55
2021/12/01 11:00:42;;;;;;;5.97;2.00;;;;;;;9.53;80.68;96300.31;4970171;28;20035;-55
2021/12/01 11:03:24;;;;;;;4.60;1.80;;;;;;;9.71;80.87;96296.53;4970674;28;20447;-55
2021/12/01 11:05:54;;;;;;;5.18;2.05;;;;;;;9.59;78.37;96284.28;4971182;28;20126;-55
2021/12/01 11:08:26;;;;;;;5.97;2.00;;;;;;;9.36;79.08;96281.41;4971205;28;20472;-54
2021/12/01 11:11:01;;;;;;;5.13;2.08;;;;;;;9.57;77.03;96273.16;4971028;28;20177;-55
2021/12/01 11:13:27;;;;;;;5.90;2.40;;;;;;;9.60;85.98;96272.97;4972301;28;20022;-55
2021/12/01 11:15:55;;;;;;;5.95;2.38;;;;;;;9.89;76.20;96267.59;4969689;28;20045;-54
2021/12/01 11:18:24;;;;;;;5.53;2.13;;;;;;;9.70;82.95;96275.78;4970164;28;20043;-55
2021/12/01 11:20:51;;;;;;;4.38;1.85;;;;;;;9.22;75.28;96258.84;4970914;28;20073;-55
2021/12/01 11:23:31;;;;;;;4.97;1.92;;;;;;;9.41;76.38;96258.53;4970581;28;20031;-55
2021/12/01 11:26:04;;;;;;;4.95;2.10;;;;;;;9.84;83.92;96244.47;4969498;28;20130;-56
2021/12/01 11:28:32;;;;;;;5.50;2.10;;;;;;;9.59;75.85;96238.28;4969658;28;20037;-56
2021/12/01 11:31:00;;;;;;;4.57;2.17;;;;;;;10.42;79.55;96229.31;4966572;28;20043;-56
2021/12/01 11:33:28;;;;;;;4.88;2.08;;;;;;;9.33;79.24;96219.16;4968416;28;20633;-55
2021/12/01 11:35:59;;;;;;;5.25;1.90;;;;;;;9.49;79.56;96218.16;4968845;28;20034;-57
2021/12/01 11:38:25;;;;;;;8.00;1.83;;;;;;;9.50;74.78;96220.66;4978020;28;20429;-56
2021/12/01 11:40:51;;;;;;;4.43;1.70;;;;;;;9.61;73.71;96212.16;4968562;28;20596;-55